KELP/ELP METAR and TAF weather

Enter ICAO airport designator
Station Type Date Time Source
KELP METAR 2021/03/05 19:51 UTC NOAA

KELP 051951Z 10SM CLR 19/M06 A3021 RMK AO2 SLP186 T01891061


Station Type Date Time Source
KELP Decoded METAR 2021/03/05 19:51 UTC NOAA

EL PASO INTERNATIONAL AIRPORT , TX, United States (KELP) 31-49N 106-23W 1197M
Mar 05, 2021 - 02:51 PM EST / 2021.03.05 1951 UTC
Visibility: 10 mile(s):0
Sky conditions: clear
Temperature: 66.0 F (18.9 C)
Dew Point: 21.0 F (-6.1 C)
Relative Humidity: 17%
Pressure (altimeter): 30.21 in. Hg (1023 hPa)
ob: KELP 051951Z 10SM CLR 19/M06 A3021 RMK AO2 SLP186 T01891061
cycle: 20

Station Type Date Time Source
KELP TAF 2021/03/05 18:22 UTC NOAA

TAF KELP 051720Z 0518/0618 01010KT P6SM FEW250
FM060000 08013KT P6SM SKC

Example: see airport list